Time;durP1;ratioP1;P1;durP2;ratioP2;P2;SDS_P1;SDS_P2;PMS_P1;PMS_P2;Temp;Humidity;BMP_temperature;BMP_pressure;BME280_temperature;BME280_humidity;BME280_pressure;Samples;Min_cycle;Max_cycle;Signal;HPM_P1;HPM_P2
2022/07/20 06:26:26;;;;;;;18.77;17.47;;;28.70;75.60;;;;;;4978035;23;20499;-71
2022/07/20 06:28:53;;;;;;;18.60;17.60;;;28.70;73.80;;;;;;4961540;28;20482;-71
2022/07/20 06:31:19;;;;;;;17.07;15.90;;;28.70;72.90;;;;;;4953115;29;20444;-71
2022/07/20 06:33:46;;;;;;;18.30;17.30;;;28.90;72.20;;;;;;4960112;28;20467;-71
2022/07/20 06:36:13;;;;;;;19.77;18.67;;;29.00;70.80;;;;;;4956301;28;20950;-72
2022/07/20 06:38:40;;;;;;;19.87;18.20;;;29.10;70.80;;;;;;4953049;29;20454;-72
2022/07/20 06:41:06;;;;;;;20.30;18.70;;;29.30;70.50;;;;;;4952815;29;20453;-71
2022/07/20 06:43:34;;;;;;;19.03;17.73;;;29.30;69.70;;;;;;4952979;29;20461;-71
2022/07/20 06:46:01;;;;;;;19.80;18.50;;;29.80;68.90;;;;;;4952857;29;20492;-72
2022/07/20 06:48:28;;;;;;;18.80;17.70;;;30.10;67.90;;;;;;4952843;29;20453;-72
2022/07/20 06:50:54;;;;;;;20.50;19.30;;;30.30;65.90;;;;;;4952639;29;20459;-73
2022/07/20 06:53:22;;;;;;;19.73;18.20;;;30.00;66.70;;;;;;4952334;29;20535;-72
2022/07/20 06:55:48;;;;;;;19.60;18.43;;;29.80;67.40;;;;;;4952071;28;20471;-73
2022/07/20 06:58:15;;;;;;;20.07;18.90;;;29.60;67.60;;;;;;4952570;29;20851;-72
2022/07/20 07:00:43;;;;;;;19.30;18.07;;;30.10;67.00;;;;;;4952591;29;20483;-72
2022/07/20 07:03:10;;;;;;;21.37;19.47;;;30.40;66.30;;;;;;4952043;29;20457;-72
2022/07/20 07:05:37;;;;;;;19.20;17.90;;;30.80;64.70;;;;;;4952328;29;20529;-72
2022/07/20 07:08:04;;;;;;;19.77;18.57;;;30.90;64.50;;;;;;4952214;29;20907;-73
2022/07/20 07:10:30;;;;;;;19.93;18.70;;;31.40;63.00;;;;;;4950122;29;20460;-73
2022/07/20 07:12:57;;;;;;;21.40;19.73;;;31.50;62.50;;;;;;4952082;29;20464;-73
2022/07/20 07:15:24;;;;;;;19.47;18.23;;;31.20;62.90;;;;;;4952091;29;20925;-73
2022/07/20 07:17:52;;;;;;;19.20;18.10;;;31.00;63.40;;;;;;4970260;28;20447;-73
2022/07/20 07:20:19;;;;;;;19.37;18.13;;;31.00;63.70;;;;;;4970506;28;20463;-71
2022/07/20 07:22:45;;;;;;;19.50;17.97;;;31.00;64.00;;;;;;4967906;28;20518;-73
2022/07/20 07:25:12;;;;;;;19.37;18.17;;;31.00;64.20;;;;;;4960351;28;20487;-72
2022/07/20 07:27:39;;;;;;;19.97;18.67;;;31.60;63.20;;;;;;4961369;28;20939;-72
2022/07/20 07:30:07;;;;;;;20.70;19.00;;;31.90;61.80;;;;;;4961883;28;20440;-73
2022/07/20 07:32:34;;;;;;;19.10;17.90;;;32.30;60.90;;;;;;4960941;28;20475;-72
2022/07/20 07:35:02;;;;;;;19.80;18.50;;;32.80;59.70;;;;;;4966251;28;20475;-72
2022/07/20 07:37:28;;;;;;;21.77;20.33;;;33.00;58.60;;;;;;4961611;28;21347;-72
2022/07/20 07:39:55;;;;;;;20.67;19.27;;;32.90;58.80;;;;;;4960906;28;20441;-72
2022/07/20 07:42:22;;;;;;;21.50;20.17;;;32.90;58.40;;;;;;4959673;28;20452;-72
2022/07/20 07:44:49;;;;;;;19.77;18.50;;;32.50;58.70;;;;;;4961044;28;20501;-73
2022/07/20 07:47:16;;;;;;;21.13;19.87;;;32.10;59.40;;;;;;4966584;28;20448;-73
2022/07/20 07:49:42;;;;;;;19.70;18.60;;;32.10;59.30;;;;;;4970541;28;20451;-72
2022/07/20 07:52:11;;;;;;;19.73;18.17;;;32.00;60.10;;;;;;4970332;28;20831;-73
2022/07/20 07:54:37;;;;;;;21.20;19.77;;;32.30;59.40;;;;;;4970550;28;20451;-72
2022/07/20 07:57:04;;;;;;;20.63;18.93;;;32.40;58.90;;;;;;4970669;28;20470;-71
2022/07/20 07:59:31;;;;;;;20.80;19.40;;;32.70;59.20;;;;;;4969960;28;20868;-71
2022/07/20 08:01:57;;;;;;;22.03;19.60;;;33.10;58.40;;;;;;4969747;28;20462;-71
2022/07/20 08:04:24;;;;;;;19.97;18.53;;;33.40;57.70;;;;;;4969814;28;20447;-71
2022/07/20 08:06:51;;;;;;;21.87;20.23;;;33.90;57.10;;;;;;4970407;28;20488;-71
2022/07/20 08:09:19;;;;;;;20.80;19.50;;;34.60;56.40;;;;;;4973914;28;20464;-72
2022/07/20 08:11:46;;;;;;;21.00;19.57;;;34.80;55.00;;;;;;4974062;28;20456;-72
2022/07/20 08:14:13;;;;;;;20.03;18.60;;;34.20;55.90;;;;;;4973751;28;20474;-72
2022/07/20 08:16:40;;;;;;;20.90;19.30;;;34.20;56.10;;;;;;4974016;28;20451;-71
2022/07/20 08:19:06;;;;;;;22.33;20.83;;;34.10;55.30;;;;;;4974321;28;20509;-73
2022/07/20 08:21:33;;;;;;;21.23;20.03;;;33.90;55.70;;;;;;4973913;28;20576;-72
2022/07/20 08:24:00;;;;;;;21.37;20.07;;;34.00;56.00;;;;;;4973398;28;20471;-72
2022/07/20 08:26:28;;;;;;;21.70;20.37;;;34.50;55.00;;;;;;4973493;28;21004;-72
2022/07/20 08:28:55;;;;;;;21.67;20.10;;;34.40;55.10;;;;;;4973663;28;20448;-72
2022/07/20 08:31:21;;;;;;;19.93;18.60;;;34.50;54.40;;;;;;4973840;28;20561;-71
2022/07/20 08:33:48;;;;;;;20.67;18.93;;;34.70;54.30;;;;;;4973810;28;20447;-72
2022/07/20 08:36:15;;;;;;;21.40;19.70;;;35.10;54.20;;;;;;4967227;28;20561;-71
2022/07/20 08:38:41;;;;;;;22.23;20.93;;;35.30;53.40;;;;;;4955141;28;20456;-72
2022/07/20 08:41:09;;;;;;;20.60;19.50;;;35.70;52.70;;;;;;4954273;29;20459;-72
2022/07/20 08:43:37;;;;;;;21.20;19.60;;;35.60;52.80;;;;;;4954343;29;20456;-72
2022/07/20 08:46:03;;;;;;;21.80;20.33;;;35.60;52.60;;;;;;4954104;29;20495;-71
2022/07/20 08:48:31;;;;;;;20.37;19.13;;;35.60;52.30;;;;;;4954208;29;20464;-72
2022/07/20 08:50:58;;;;;;;19.97;18.67;;;35.80;51.90;;;;;;4954063;29;20456;-72
2022/07/20 08:53:24;;;;;;;22.07;20.53;;;36.10;51.80;;;;;;4954006;29;20805;-72
2022/07/20 08:55:51;;;;;;;22.43;20.93;;;36.30;51.10;;;;;;4953793;29;20452;-71
2022/07/20 08:58:18;;;;;;;20.63;19.33;;;36.20;51.30;;;;;;4953922;29;20540;-71
2022/07/20 09:00:46;;;;;;;22.13;20.30;;;35.90;50.80;;;;;;4953838;29;20519;-71
2022/07/20 09:03:13;;;;;;;20.17;19.07;;;36.20;51.10;;;;;;4953662;29;20453;-71
2022/07/20 09:05:41;;;;;;;21.67;20.33;;;36.40;50.40;;;;;;4953287;29;20531;-71
2022/07/20 09:08:12;;;;;;;23.47;22.17;;;36.70;50.00;;;;;;4953618;29;20853;-71
2022/07/20 09:10:41;;;;;;;21.20;20.00;;;37.00;49.50;;;;;;4953858;29;20459;-72
2022/07/20 09:13:12;;;;;;;22.47;20.83;;;37.30;48.80;;;;;;4953965;29;20484;-71
2022/07/20 09:15:41;;;;;;;23.40;22.10;;;37.70;48.00;;;;;;4953302;29;20476;-71
2022/07/20 09:18:15;;;;;;;22.17;20.97;;;38.30;46.90;;;;;;4953878;29;20504;-71
2022/07/20 09:20:43;;;;;;;19.70;18.80;;;38.50;46.30;;;;;;4952822;29;20460;-72
2022/07/20 09:23:12;;;;;;;21.33;19.80;;;39.00;45.50;;;;;;4953184;29;20481;-72
2022/07/20 09:25:49;;;;;;;21.17;20.13;;;39.80;43.80;;;;;;4953234;29;20492;-72
2022/07/20 09:28:15;;;;;;;21.80;20.77;;;40.10;42.70;;;;;;4953163;29;20464;-72
2022/07/20 09:30:50;;;;;;;23.40;21.80;;;40.60;41.00;;;;;;4953057;29;20511;-72
2022/07/20 09:33:25;;;;;;;22.20;21.00;;;41.10;39.60;;;;;;4953435;29;20504;-72
2022/07/20 09:35:51;;;;;;;22.07;20.97;;;41.20;39.30;;;;;;4953741;29;20494;-72
2022/07/20 09:38:18;;;;;;;21.00;19.90;;;41.50;38.20;;;;;;4953048;29;20503;-71
2022/07/20 09:40:47;;;;;;;24.17;22.97;;;42.00;37.70;;;;;;4953333;29;20451;-71
2022/07/20 09:43:27;;;;;;;23.60;22.17;;;43.00;36.50;;;;;;4953291;29;20464;-71
2022/07/20 09:45:55;;;;;;;23.33;21.93;;;44.30;34.80;;;;;;4953076;29;20499;-73
2022/07/20 09:48:24;;;;;;;24.57;23.30;;;44.50;33.10;;;;;;4953264;29;20632;-72
2022/07/20 09:50:51;;;;;;;25.37;23.47;;;44.30;32.80;;;;;;4953050;29;20456;-71
2022/07/20 09:53:18;;;;;;;27.43;25.63;;;43.80;33.30;;;;;;4952882;29;20674;-72
2022/07/20 09:55:44;;;;;;;23.97;22.70;;;44.30;32.30;;;;;;4952968;29;20274;-71
2022/07/20 09:58:11;;;;;;;22.93;21.70;;;44.20;31.80;;;;;;4952703;29;20215;-71
2022/07/20 10:00:39;;;;;;;23.23;21.93;;;44.40;31.20;;;;;;4952778;29;20211;-71
2022/07/20 10:03:06;;;;;;;23.40;22.30;;;44.60;30.90;;;;;;4952880;29;20571;-71
2022/07/20 10:05:36;;;;;;;23.90;22.40;;;44.30;30.90;;;;;;4952497;29;20208;-71
2022/07/20 10:08:07;;;;;;;24.13;22.70;;;44.40;31.20;;;;;;4952350;29;20243;-71
2022/07/20 10:10:34;;;;;;;23.77;22.40;;;44.40;30.30;;;;;;4952596;29;20550;-70
2022/07/20 10:13:01;;;;;;;22.27;20.87;;;44.10;29.80;;;;;;4952222;29;20208;-71
2022/07/20 10:15:45;;;;;;;21.30;20.20;;;43.20;30.10;;;;;;4944596;29;20463;-70
2022/07/20 10:18:14;;;;;;;21.80;20.80;;;42.50;30.20;;;;;;4952034;29;20460;-71
2022/07/20 10:20:42;;;;;;;24.07;22.87;;;43.20;29.80;;;;;;4952155;29;20456;-70
2022/07/20 10:23:31;;;;;;;24.30;22.70;;;43.70;29.50;;;;;;4952026;29;21004;-70
2022/07/20 10:25:59;;;;;;;24.33;23.23;;;44.70;28.60;;;;;;4951632;29;20248;-71
2022/07/20 10:28:37;;;;;;;23.20;21.90;;;45.20;28.20;;;;;;4952031;29;20212;-71
2022/07/20 10:31:08;;;;;;;21.37;20.43;;;45.40;27.50;;;;;;4952196;28;20295;-71
2022/07/20 10:33:38;;;;;;;22.37;21.30;;;44.70;27.20;;;;;;4952476;29;20600;-71
2022/07/20 10:39:19;;;;;;;22.20;21.10;;;44.20;27.90;;;;;;4952278;29;20215;-71
2022/07/20 10:42:25;;;;;;;22.73;21.47;;;43.90;28.90;;;;;;4951782;29;20460;-71
2022/07/20 10:44:52;;;;;;;22.80;21.37;;;44.00;28.50;;;;;;4952201;29;20204;-70
2022/07/20 10:47:42;;;;;;;23.27;22.13;;;43.80;28.80;;;;;;4951985;29;20488;-71
2022/07/20 10:50:10;;;;;;;23.30;22.20;;;44.10;28.00;;;;;;4952000;29;20279;-71
2022/07/20 10:52:38;;;;;;;21.87;20.87;;;43.40;28.60;;;;;;4952425;29;20459;-72
2022/07/20 10:55:06;;;;;;;22.10;20.80;;;43.10;28.90;;;;;;4951809;29;20546;-71
2022/07/20 10:57:35;;;;;;;21.30;20.30;;;43.70;28.00;;;;;;4951893;29;20550;-72
2022/07/20 11:00:13;;;;;;;20.13;19.23;;;43.30;28.20;;;;;;4951787;29;20460;-71
2022/07/20 11:02:40;;;;;;;22.40;21.30;;;42.80;28.90;;;;;;4952195;29;20506;-71
2022/07/20 11:05:20;;;;;;;22.40;21.20;;;42.70;29.40;;;;;;4952034;29;20467;-71
2022/07/20 11:07:48;;;;;;;23.40;22.10;;;43.40;28.70;;;;;;4951649;29;20567;-71
2022/07/20 11:10:25;;;;;;;20.63;19.53;;;43.60;28.90;;;;;;4951737;29;20456;-71
2022/07/20 11:12:56;;;;;;;22.30;21.30;;;43.20;29.50;;;;;;4951909;29;20455;-72
2022/07/20 11:15:23;;;;;;;22.50;21.33;;;43.70;28.90;;;;;;4951978;29;20456;-72
2022/07/20 11:17:54;;;;;;;24.00;22.73;;;44.50;28.40;;;;;;4951626;29;20448;-71
2022/07/20 11:20:21;;;;;;;22.80;21.70;;;43.30;28.70;;;;;;4951773;29;20456;-71
2022/07/20 11:22:49;;;;;;;21.57;20.40;;;43.10;29.20;;;;;;4951824;29;20462;-71
2022/07/20 11:25:16;;;;;;;23.00;21.80;;;43.50;28.60;;;;;;4951338;29;20989;-72
2022/07/20 11:27:42;;;;;;;22.53;21.27;;;44.00;28.40;;;;;;4951389;29;20491;-72
2022/07/20 11:30:10;;;;;;;22.13;20.70;;;43.90;28.50;;;;;;4951708;29;20475;-72
2022/07/20 11:32:52;;;;;;;21.63;20.73;;;43.20;28.80;;;;;;4951246;29;20452;-71
2022/07/20 11:35:19;;;;;;;22.30;21.10;;;43.30;28.90;;;;;;4951518;29;20467;-71
2022/07/20 11:37:52;;;;;;;23.10;22.00;;;43.80;28.80;;;;;;4951296;29;20813;-72
2022/07/20 11:40:19;;;;;;;23.77;22.50;;;44.80;28.10;;;;;;4951718;29;20252;-72
2022/07/20 11:43:08;;;;;;;23.10;21.80;;;45.80;27.60;;;;;;4952329;28;20205;-71
2022/07/20 11:45:35;;;;;;;22.67;21.50;;;45.50;27.60;;;;;;4955575;29;20579;-71
2022/07/20 11:48:03;;;;;;;21.37;20.10;;;44.80;27.50;;;;;;4955062;29;20223;-72
2022/07/20 11:50:32;;;;;;;20.87;20.07;;;44.40;28.00;;;;;;4955176;29;20605;-72
2022/07/20 11:53:00;;;;;;;20.87;19.83;;;44.10;27.60;;;;;;4954925;29;20224;-72
2022/07/20 11:55:35;;;;;;;22.30;21.40;;;44.40;27.80;;;;;;4954612;29;20456;-72
2022/07/20 11:58:02;;;;;;;23.43;21.60;;;44.40;27.90;;;;;;4955029;29;20689;-72
2022/07/20 12:00:29;;;;;;;21.73;20.70;;;44.30;27.70;;;;;;4955080;29;20531;-72
2022/07/20 12:02:57;;;;;;;21.83;20.77;;;44.60;27.60;;;;;;4954642;29;20204;-72
2022/07/20 12:05:23;;;;;;;22.60;21.40;;;44.80;27.10;;;;;;4954948;29;20245;-71
2022/07/20 12:08:08;;;;;;;22.30;21.20;;;44.30;27.90;;;;;;4954995;29;20227;-72
2022/07/20 12:10:36;;;;;;;22.37;21.10;;;44.80;27.40;;;;;;4954692;29;20223;-71
2022/07/20 12:13:03;;;;;;;22.47;21.47;;;45.20;26.60;;;;;;4954761;29;20211;-72
2022/07/20 12:15:30;;;;;;;22.93;21.80;;;44.90;27.00;;;;;;4954939;29;20215;-71
2022/07/20 12:17:57;;;;;;;30.10;23.83;;;44.40;27.70;;;;;;4954628;29;20204;-72
2022/07/20 12:20:26;;;;;;;22.27;21.07;;;43.80;28.60;;;;;;4954711;29;20467;-72
2022/07/20 12:22:54;;;;;;;22.80;21.43;;;43.70;29.00;;;;;;4954738;29;20455;-72
2022/07/20 12:25:21;;;;;;;24.17;22.33;;;43.20;29.40;;;;;;4954415;29;20490;-72
2022/07/20 12:27:49;;;;;;;22.57;21.37;;;43.00;29.60;;;;;;4954250;29;20483;-71
2022/07/20 12:30:31;;;;;;;21.40;20.30;;;43.30;29.70;;;;;;4954304;29;20459;-72
2022/07/20 12:33:06;;;;;;;25.50;23.93;;;43.10;29.90;;;;;;4954373;29;20487;-71
2022/07/20 12:35:34;;;;;;;23.93;22.50;;;43.60;29.80;;;;;;4954147;29;20451;-71
2022/07/20 12:38:01;;;;;;;23.43;21.87;;;44.40;29.10;;;;;;4954154;29;20919;-72
2022/07/20 12:40:37;;;;;;;22.97;21.57;;;43.50;29.80;;;;;;4946715;29;20455;-72
2022/07/20 12:43:06;;;;;;;21.97;20.90;;;43.10;29.60;;;;;;4954487;29;20916;-72
2022/07/20 12:45:33;;;;;;;23.33;22.23;;;42.90;29.70;;;;;;4954386;29;20476;-72
2022/07/20 12:48:00;;;;;;;23.90;22.57;;;43.30;29.80;;;;;;4953857;29;20483;-72
2022/07/20 12:50:26;;;;;;;24.87;23.57;;;42.90;29.90;;;;;;4954148;29;20463;-71
2022/07/20 12:52:53;;;;;;;23.13;21.90;;;42.20;31.10;;;;;;4954092;29;20463;-72
2022/07/20 12:55:20;;;;;;;23.97;22.87;;;42.70;31.50;;;;;;4953046;28;20451;-72
2022/07/20 12:57:47;;;;;;;23.67;22.47;;;42.90;31.30;;;;;;4953947;29;20818;-72
2022/07/20 13:00:16;;;;;;;24.30;22.93;;;42.60;32.00;;;;;;4954204;29;20846;-71
2022/07/20 13:02:43;;;;;;;25.07;23.47;;;42.90;31.40;;;;;;4953784;29;20745;-71
2022/07/20 13:05:09;;;;;;;28.10;26.17;;;41.60;32.30;;;;;;4953649;29;20468;-72
2022/07/20 13:07:36;;;;;;;24.37;23.27;;;40.70;33.80;;;;;;4953686;29;20491;-72
2022/07/20 13:10:03;;;;;;;25.90;24.40;;;39.80;34.80;;;;;;4953694;29;20462;-72
2022/07/20 13:12:30;;;;;;;29.63;27.97;;;39.20;36.30;;;;;;4953658;29;20460;-72
2022/07/20 13:14:57;;;;;;;27.87;26.00;;;38.60;37.50;;;;;;4953091;29;20464;-72
2022/07/20 13:17:25;;;;;;;29.47;27.10;;;37.90;38.60;;;;;;4953582;29;20453;-72
2022/07/20 13:19:51;;;;;;;28.93;26.93;;;37.30;39.90;;;;;;4953989;29;20465;-72
2022/07/20 13:22:18;;;;;;;31.27;29.30;;;36.90;41.10;;;;;;4953348;29;20457;-72
2022/07/20 13:24:45;;;;;;;31.67;28.87;;;36.30;41.90;;;;;;4953124;29;20571;-71
2022/07/20 13:27:11;;;;;;;30.57;28.60;;;36.00;42.70;;;;;;4952976;29;20499;-72
2022/07/20 13:29:38;;;;;;;29.77;27.97;;;35.70;44.00;;;;;;4953235;29;20873;-71
2022/07/20 13:32:05;;;;;;;29.53;27.13;;;35.40;44.60;;;;;;4953469;29;20453;-71
2022/07/20 13:34:33;;;;;;;28.80;26.80;;;34.90;46.70;;;;;;4952888;29;20452;-71
2022/07/20 13:37:00;;;;;;;29.17;27.07;;;34.60;48.00;;;;;;4953538;29;20452;-71
2022/07/20 13:39:27;;;;;;;29.70;27.50;;;34.30;48.80;;;;;;4953026;29;20947;-71
2022/07/20 13:41:53;;;;;;;30.30;28.17;;;33.90;49.60;;;;;;4952950;29;20460;-71
2022/07/20 13:44:20;;;;;;;31.67;29.27;;;33.80;50.30;;;;;;4953415;29;20461;-71
2022/07/20 13:46:47;;;;;;;31.83;29.60;;;33.70;51.30;;;;;;4952879;29;20457;-71
2022/07/20 13:49:14;;;;;;;30.33;28.43;;;33.60;52.40;;;;;;4953124;29;20878;-71
2022/07/20 13:51:42;;;;;;;29.80;27.60;;;33.50;53.10;;;;;;4952927;29;20969;-72
2022/07/20 13:54:09;;;;;;;30.40;27.90;;;33.50;55.10;;;;;;4952814;29;20453;-71
2022/07/20 13:56:35;;;;;;;31.77;29.87;;;33.40;59.60;;;;;;4950817;29;20468;-72
2022/07/20 13:59:02;;;;;;;35.43;32.93;;;32.90;65.40;;;;;;4953439;29;20821;-71
2022/07/20 14:01:29;;;;;;;35.77;33.07;;;32.20;67.80;;;;;;4953563;29;20456;-70
2022/07/20 14:03:55;;;;;;;35.53;32.70;;;31.40;72.80;;;;;;4953435;29;20452;-70
2022/07/20 14:06:23;;;;;;;35.47;32.93;;;31.10;77.50;;;;;;4952936;28;20456;-70
2022/07/20 14:08:51;;;;;;;36.03;33.47;;;31.40;77.70;;;;;;4951716;29;20484;-71
2022/07/20 14:11:17;;;;;;;32.77;30.47;;;31.80;76.00;;;;;;4950551;29;20457;-71
2022/07/20 14:13:44;;;;;;;33.07;30.87;;;32.20;73.90;;;;;;4951275;29;20463;-71
2022/07/20 14:16:11;;;;;;;32.93;29.70;;;32.30;72.90;;;;;;4953041;29;20479;-72
2022/07/20 14:18:38;;;;;;;31.67;29.53;;;32.40;73.50;;;;;;4952849;29;20456;-73
2022/07/20 14:21:04;;;;;;;31.10;28.80;;;32.70;73.60;;;;;;4953324;29;20452;-73
2022/07/20 14:23:31;;;;;;;31.27;29.37;;;32.80;73.70;;;;;;4952773;29;20985;-70
2022/07/20 14:25:59;;;;;;;30.70;28.60;;;33.00;73.80;;;;;;4952791;29;20487;-73
2022/07/20 14:28:26;;;;;;;32.73;30.27;;;33.20;73.30;;;;;;4952872;29;20488;-70
2022/07/20 14:30:53;;;;;;;30.73;28.50;;;33.60;72.00;;;;;;4952623;29;20555;-71
2022/07/20 14:33:20;;;;;;;32.13;30.17;;;33.90;71.40;;;;;;4952914;29;20530;-71
2022/07/20 14:35:47;;;;;;;32.70;30.43;;;34.20;69.90;;;;;;4952810;29;20471;-71
2022/07/20 14:38:14;;;;;;;32.77;30.53;;;34.50;68.80;;;;;;4952615;29;20491;-71
2022/07/20 14:40:41;;;;;;;33.50;30.73;;;34.70;68.80;;;;;;4952359;29;20486;-71
2022/07/20 14:43:09;;;;;;;32.73;30.37;;;34.80;66.00;;;;;;4952699;29;20452;-71
2022/07/20 14:45:36;;;;;;;32.23;29.70;;;35.00;63.70;;;;;;4952315;29;20452;-71
2022/07/20 14:48:03;;;;;;;31.03;29.13;;;34.80;63.80;;;;;;4952190;29;20504;-71
2022/07/20 14:50:30;;;;;;;30.53;28.37;;;34.80;63.30;;;;;;4952077;29;20456;-71
2022/07/20 14:52:57;;;;;;;31.90;29.60;;;35.00;62.10;;;;;;4951946;29;20468;-71
2022/07/20 14:55:24;;;;;;;29.70;27.70;;;34.70;62.80;;;;;;4951969;29;20461;-70
2022/07/20 14:57:52;;;;;;;31.00;28.77;;;34.60;62.40;;;;;;4952161;29;20940;-71
2022/07/20 15:00:21;;;;;;;31.30;29.20;;;34.60;62.70;;;;;;4951693;28;20802;-73
2022/07/20 15:02:47;;;;;;;27.97;25.83;;;34.60;63.80;;;;;;4950413;29;20455;-71
2022/07/20 15:05:14;;;;;;;31.83;29.63;;;34.70;63.70;;;;;;4950165;29;20965;-71
2022/07/20 15:07:41;;;;;;;29.10;27.40;;;34.70;61.80;;;;;;4951067;29;20575;-72
2022/07/20 15:10:09;;;;;;;30.00;28.00;;;34.70;61.40;;;;;;4951723;29;20460;-71
2022/07/20 15:12:36;;;;;;;29.97;28.20;;;34.90;60.50;;;;;;4952117;29;20460;-71
2022/07/20 15:15:05;;;;;;;33.03;30.83;;;34.70;60.00;;;;;;4948374;29;20459;-72
2022/07/20 15:17:34;;;;;;;34.30;31.90;;;34.80;60.40;;;;;;4950854;29;20825;-72
2022/07/20 15:20:00;;;;;;;33.17;30.80;;;35.20;60.20;;;;;;4951619;29;20491;-71
2022/07/20 15:22:27;;;;;;;32.63;30.33;;;35.40;60.00;;;;;;4951596;29;20837;-71
2022/07/20 15:24:54;;;;;;;33.97;31.30;;;35.50;59.30;;;;;;4951429;29;20496;-71
2022/07/20 15:27:20;;;;;;;32.83;30.73;;;35.60;59.10;;;;;;4951709;29;20955;-71
2022/07/20 15:29:47;;;;;;;32.43;30.37;;;35.90;58.90;;;;;;4951537;29;20459;-71
2022/07/20 15:32:14;;;;;;;28.70;27.00;;;35.90;57.60;;;;;;4951500;29;20464;-71
2022/07/20 15:34:42;;;;;;;32.80;30.37;;;36.00;57.90;;;;;;4951548;29;20457;-72
2022/07/20 15:37:10;;;;;;;31.33;29.03;;;35.80;57.60;;;;;;4951552;29;20483;-71
2022/07/20 15:39:41;;;;;;;33.60;30.93;;;35.80;56.90;;;;;;4951654;29;20503;-72
2022/07/20 15:42:08;;;;;;;29.17;27.43;;;35.50;56.10;;;;;;4951547;29;20456;-72
2022/07/20 15:44:35;;;;;;;29.80;27.80;;;35.20;56.10;;;;;;4951689;29;20452;-72
2022/07/20 15:47:01;;;;;;;30.57;28.50;;;35.10;56.40;;;;;;4951676;29;20486;-71
2022/07/20 15:49:29;;;;;;;30.07;28.23;;;35.30;56.40;;;;;;4951399;29;20488;-72
2022/07/20 15:51:57;;;;;;;29.77;27.87;;;35.40;55.40;;;;;;4951168;29;20470;-72
2022/07/20 15:54:23;;;;;;;28.10;26.20;;;35.50;55.20;;;;;;4951469;29;20452;-72
2022/07/20 15:59:36;;;;;;;32.10;29.90;;;35.70;54.80;;;;;;4951645;29;20447;-71
2022/07/20 16:02:02;;;;;;;32.90;30.07;;;36.00;55.00;;;;;;4951547;29;20456;-71
2022/07/20 16:04:29;;;;;;;30.97;28.87;;;36.30;54.00;;;;;;4949446;29;20468;-72
2022/07/20 16:06:57;;;;;;;29.40;27.63;;;36.40;53.50;;;;;;4950977;29;20464;-71
2022/07/20 16:09:24;;;;;;;30.10;28.03;;;36.50;53.50;;;;;;4951157;29;21029;-71
2022/07/20 16:11:51;;;;;;;26.63;24.90;;;36.80;53.20;;;;;;4951385;29;20452;-71
2022/07/20 16:14:17;;;;;;;30.10;28.03;;;36.70;52.70;;;;;;4951159;29;20459;-71
2022/07/20 16:16:44;;;;;;;29.07;27.47;;;36.70;52.90;;;;;;4951324;29;20469;-72
2022/07/20 16:19:11;;;;;;;29.03;26.83;;;36.50;53.10;;;;;;4951134;29;20452;-71
2022/07/20 16:21:37;;;;;;;28.33;26.03;;;36.50;53.10;;;;;;4951538;29;20520;-71
2022/07/20 16:24:06;;;;;;;30.33;27.90;;;36.60;52.90;;;;;;4951041;29;20479;-72
2022/07/20 16:26:33;;;;;;;28.70;26.73;;;36.10;53.30;;;;;;4951221;29;20457;-72
2022/07/20 16:28:59;;;;;;;27.50;25.90;;;36.00;53.30;;;;;;4952660;28;20488;-71
2022/07/20 16:31:26;;;;;;;28.03;25.80;;;35.80;53.40;;;;;;4946825;29;20460;-71
2022/07/20 16:33:53;;;;;;;29.73;27.57;;;35.70;54.00;;;;;;4954797;29;20523;-72
2022/07/20 16:36:22;;;;;;;28.40;26.70;;;35.40;54.00;;;;;;4954485;29;20449;-71
2022/07/20 16:38:48;;;;;;;30.20;27.90;;;35.20;54.40;;;;;;4954464;29;20850;-72
2022/07/20 16:41:16;;;;;;;30.67;28.43;;;35.00;55.10;;;;;;4954504;29;20452;-71
2022/07/20 16:43:43;;;;;;;30.53;28.27;;;34.70;55.80;;;;;;4954489;29;20459;-71
2022/07/20 16:46:11;;;;;;;29.73;27.50;;;34.60;56.00;;;;;;4954213;29;20461;-72
2022/07/20 16:48:38;;;;;;;29.97;27.77;;;34.60;56.20;;;;;;4954298;29;20495;-72
2022/07/20 16:51:04;;;;;;;26.80;25.37;;;34.30;56.90;;;;;;4954520;29;20464;-72
2022/07/20 16:53:31;;;;;;;29.90;27.90;;;34.20;57.40;;;;;;4954196;29;20444;-71
2022/07/20 16:56:00;;;;;;;28.43;26.47;;;34.00;57.80;;;;;;4954467;29;20456;-72
2022/07/20 16:58:29;;;;;;;30.43;28.50;;;33.90;58.20;;;;;;4953993;29;20453;-71
2022/07/20 17:00:55;;;;;;;29.10;27.27;;;33.70;58.60;;;;;;4954090;29;20475;-71
2022/07/20 17:03:23;;;;;;;32.20;30.13;;;33.60;59.20;;;;;;4954237;29;20453;-71
2022/07/20 17:05:50;;;;;;;29.00;26.50;;;33.50;59.30;;;;;;4953994;29;20461;-72
2022/07/20 17:08:18;;;;;;;30.10;28.20;;;33.50;59.50;;;;;;4953682;29;20492;-71
2022/07/20 17:10:45;;;;;;;32.30;29.77;;;33.40;59.80;;;;;;4953723;29;20794;-71
2022/07/20 17:13:11;;;;;;;30.50;28.50;;;33.30;61.30;;;;;;4953819;29;20449;-71
2022/07/20 17:15:40;;;;;;;30.60;28.60;;;33.00;65.20;;;;;;4954112;29;20464;-72
2022/07/20 17:18:07;;;;;;;37.33;34.83;;;32.60;68.70;;;;;;4953845;29;20989;-71
2022/07/20 17:20:33;;;;;;;44.40;41.20;;;31.90;76.60;;;;;;4953768;29;20455;-71
2022/07/20 17:23:00;;;;;;;46.87;43.57;;;31.00;90.30;;;;;;4953549;29;20545;-72
2022/07/20 17:25:27;;;;;;;48.50;45.47;;;29.90;93.00;;;;;;4953537;29;20832;-72
2022/07/20 17:27:53;;;;;;;50.70;46.97;;;28.90;98.30;;;;;;4953558;29;20515;-71
2022/07/20 17:30:20;;;;;;;55.50;51.03;;;28.10;99.90;;;;;;4953869;29;20855;-72
2022/07/20 17:32:49;;;;;;;56.30;52.07;;;27.60;99.90;;;;;;4953575;29;20460;-72
2022/07/20 17:35:16;;;;;;;61.07;56.20;;;27.10;99.90;;;;;;4953403;29;20511;-71
2022/07/20 17:37:44;;;;;;;58.63;54.30;;;26.70;99.90;;;;;;4953475;29;21001;-70
2022/07/20 17:40:13;;;;;;;56.90;52.80;;;26.50;99.90;;;;;;4952680;28;20461;-70
2022/07/20 17:42:41;;;;;;;54.77;51.07;;;26.30;99.90;;;;;;4953366;29;20793;-69
2022/07/20 17:45:08;;;;;;;49.10;46.00;;;26.30;99.90;;;;;;4953439;29;20878;-68
2022/07/20 17:47:35;;;;;;;52.80;47.73;;;26.30;99.90;;;;;;4953401;29;20449;-69
2022/07/20 17:50:04;;;;;;;46.40;43.40;;;26.30;99.90;;;;;;4953241;29;20573;-69
2022/07/20 17:52:31;;;;;;;50.03;46.30;;;26.50;99.90;;;;;;4953080;29;20958;-69
2022/07/20 17:54:58;;;;;;;51.20;47.70;;;26.80;99.90;;;;;;4953080;29;20492;-69
2022/07/20 17:57:25;;;;;;;46.40;42.70;;;27.00;99.90;;;;;;4952853;29;20452;-69
2022/07/20 17:59:52;;;;;;;40.13;37.13;;;27.20;99.90;;;;;;4951287;29;20453;-69
2022/07/20 18:02:19;;;;;;;42.90;39.87;;;27.30;99.90;;;;;;4952892;29;20456;-70
2022/07/20 18:04:45;;;;;;;43.10;40.00;;;27.30;99.90;;;;;;4952795;29;20467;-70
2022/07/20 18:07:13;;;;;;;42.20;39.20;;;27.40;99.90;;;;;;4952595;29;20817;-70
2022/07/20 18:09:41;;;;;;;37.07;34.33;;;27.30;99.90;;;;;;4953122;29;20496;-70
2022/07/20 18:12:08;;;;;;;33.60;31.37;;;27.30;99.90;;;;;;4952882;29;20484;-70
2022/07/20 18:14:35;;;;;;;36.00;33.40;;;27.30;99.90;;;;;;4952982;29;20468;-70
2022/07/20 18:17:03;;;;;;;30.03;28.00;;;27.20;99.90;;;;;;4957739;28;20939;-72
2022/07/20 18:19:29;;;;;;;29.57;27.77;;;27.00;99.90;;;;;;4960536;28;20448;-69
2022/07/20 18:21:56;;;;;;;29.57;27.37;;;26.60;99.90;;;;;;4961342;28;20450;-73
2022/07/20 18:24:24;;;;;;;39.70;37.40;;;26.20;99.90;;;;;;4963971;28;20495;-72
2022/07/20 18:26:51;;;;;;;42.50;39.50;;;25.40;99.90;;;;;;4962309;28;20439;-73
2022/07/20 18:29:18;;;;;;;45.73;42.47;;;24.40;99.90;;;;;;4963164;28;20487;-73
2022/07/20 18:31:46;;;;;;;51.13;47.63;;;23.80;99.90;;;;;;4961581;28;20918;-72
2022/07/20 18:34:16;;;;;;;52.87;48.60;;;23.30;99.90;;;;;;4961556;28;20479;-74
2022/07/20 18:36:43;;;;;;;51.13;46.87;;;22.90;99.90;;;;;;4963035;28;20448;-71
2022/07/20 18:39:10;;;;;;;50.43;46.37;;;22.60;99.90;;;;;;4962214;28;20449;-73
2022/07/20 18:41:38;;;;;;;55.70;51.00;;;22.30;99.90;;;;;;4961251;28;20491;-73
2022/07/20 18:44:05;;;;;;;57.10;52.97;;;22.20;99.90;;;;;;4963182;28;20456;-72
2022/07/20 18:46:33;;;;;;;54.27;49.67;;;22.10;99.90;;;;;;4962558;28;20475;-74
2022/07/20 18:49:00;;;;;;;56.33;51.73;;;22.10;99.90;;;;;;4960893;28;20572;-73
2022/07/20 18:51:26;;;;;;;54.80;50.33;;;22.10;99.90;;;;;;4962227;28;20809;-73
2022/07/20 18:53:53;;;;;;;56.20;51.90;;;22.00;99.90;;;;;;4962457;28;20441;-73
2022/07/20 18:56:22;;;;;;;56.90;52.50;;;22.00;99.90;;;;;;4960940;28;20551;-73
2022/07/20 18:58:50;;;;;;;56.30;52.03;;;22.00;99.90;;;;;;4961950;28;20993;-72
2022/07/20 19:01:17;;;;;;;57.33;53.13;;;22.00;99.90;;;;;;4960215;28;20440;-72
2022/07/20 19:03:43;;;;;;;62.17;57.30;;;22.00;99.90;;;;;;4952445;29;20464;-73